Terminal Aerodrome Forecast
Issued by NWS Hastings, NE

Home | Current Version | Previous Version | Text Only | Print | Product List | Glossary On
Versions: 1 2 3 4 5 6 7 8 9 10 11 12 13 14 15 16 17 18 19 20 21 22 23 24 25 26 27 28 29 30 31 32 33 34 35 36 37 38 39 40 41 42 43 44 45 46 47 48 49 50
000
FTUS43 KGID 200403 AAC
TAFGRI
TAF AMD
KGRI 200403Z 2004/2024 18003KT 1/2SM FG BKN004
     FM200800 VRB03KT 1/2SM FG OVC002
     FM201500 18006KT 1SM BR BKN006
     FM201600 18006KT P6SM BKN011=

USA.gov is the U.S. government's official web portal to all federal, state and local government web resources and services.